Time;durP1;ratioP1;P1;durP2;ratioP2;P2;SDS_P1;SDS_P2;PMS_P1;PMS_P2;Temp;Humidity;BMP_temperature;BMP_pressure;BME280_temperature;BME280_humidity;BME280_pressure;Samples;Min_cycle;Max_cycle;Signal;HPM_P1;HPM_P2
2020/12/29 00:04:13;;;;;;;0.93;0.88;;;;;;;;;;10285496;28;20039;-62
2020/12/29 00:09:11;;;;;;;0.73;0.73;;;;;;;;;;10285435;28;20030;-61
2020/12/29 00:14:09;;;;;;;1.90;1.52;;;;;;;;;;10284545;28;20048;-62
2020/12/29 00:19:08;;;;;;;3.70;1.20;;;;;;;;;;10282747;28;20495;-62
2020/12/29 00:24:05;;;;;;;;;;;;;;;;;;10294121;28;20030;-62
2020/12/29 00:29:02;;;;;;;3.15;2.17;;;;;;;;;;10291888;28;19928;-62
2020/12/29 00:34:00;;;;;;;1.97;1.43;;;;;;;;;;10286724;28;20037;-62
2020/12/29 00:38:57;;;;;;;6.50;1.77;;;;;;;;;;10291119;28;20033;-62
2020/12/29 00:43:55;;;;;;;3.13;1.37;;;;;;;;;;10286829;28;20025;-62
2020/12/29 00:48:52;;;;;;;1.23;1.13;;;;;;;;;;10290321;28;20084;-62
2020/12/29 00:53:50;;;;;;;1.35;1.20;;;;;;;;;;10286443;28;20539;-61
2020/12/29 00:58:49;;;;;;;3.13;1.92;;;;;;;;;;10264195;28;20480;-60
2020/12/29 01:03:47;;;;;;;4.72;1.65;;;;;;;;;;10290617;28;20069;-62
2020/12/29 01:08:45;;;;;;;4.97;0.93;;;;;;;;;;10293629;28;20138;-62
2020/12/29 01:13:44;;;;;;;2.50;1.77;;;;;;;;;;10241998;28;20096;-63
2020/12/29 01:18:42;;;;;;;2.28;1.65;;;;;;;;;;10232551;28;20042;-62
2020/12/29 01:23:39;;;;;;;1.33;1.30;;;;;;;;;;10238206;28;20036;-63
2020/12/29 01:28:37;;;;;;;2.30;1.47;;;;;;;;;;10226718;28;20038;-63
2020/12/29 01:33:34;;;;;;;1.90;1.80;;;;;;;;;;10227788;28;20486;-63
2020/12/29 01:38:32;;;;;;;2.13;1.93;;;;;;;;;;10235085;28;20042;-64
2020/12/29 01:43:30;;;;;;;2.40;1.57;;;;;;;;;;10242234;28;20137;-64
2020/12/29 01:48:27;;;;;;;8.40;3.87;;;;;;;;;;10233560;28;20446;-64
2020/12/29 01:53:25;;;;;;;3.73;2.40;;;;;;;;;;10245144;28;20045;-64
2020/12/29 01:58:22;;;;;;;1.57;1.43;;;;;;;;;;10233800;28;20068;-64
2020/12/29 02:03:20;;;;;;;3.77;2.43;;;;;;;;;;10232418;28;20084;-64
2020/12/29 02:08:18;;;;;;;3.17;2.37;;;;;;;;;;10254968;28;20041;-65
2020/12/29 02:13:15;;;;;;;4.00;2.97;;;;;;;;;;10271765;28;20046;-64
2020/12/29 02:18:13;;;;;;;4.33;3.20;;;;;;;;;;10278037;28;20041;-63
2020/12/29 02:23:10;;;;;;;1.97;1.87;;;;;;;;;;10291083;28;20034;-63
2020/12/29 02:28:08;;;;;;;7.97;4.33;;;;;;;;;;10281692;28;20029;-63
2020/12/29 02:33:05;;;;;;;4.67;2.37;;;;;;;;;;10285441;28;20485;-63
2020/12/29 02:38:03;;;;;;;5.90;1.77;;;;;;;;;;10283923;28;20435;-63
2020/12/29 02:43:01;;;;;;;3.08;1.92;;;;;;;;;;10258938;28;20046;-63
2020/12/29 02:47:58;;;;;;;8.73;4.43;;;;;;;;;;10268936;28;21075;-63
2020/12/29 02:52:56;;;;;;;6.50;2.87;;;;;;;;;;10276815;28;20584;-63
2020/12/29 02:57:54;;;;;;;0.83;0.83;;;;;;;;;;10272266;28;20434;-62
2020/12/29 03:02:51;;;;;;;5.50;4.10;;;;;;;;;;10264715;28;20419;-61
2020/12/29 03:07:48;;;;;;;3.37;2.20;;;;;;;;;;10289084;28;20065;-63
2020/12/29 03:12:46;;;;;;;2.70;1.93;;;;;;;;;;10277198;28;20043;-64
2020/12/29 03:17:43;;;;;;;9.63;3.97;;;;;;;;;;10271039;28;20038;-64
2020/12/29 03:22:41;;;;;;;4.83;2.67;;;;;;;;;;10273051;28;20991;-64
2020/12/29 03:27:38;;;;;;;1.73;1.60;;;;;;;;;;10266628;28;20507;-62
2020/12/29 03:32:36;;;;;;;2.57;1.93;;;;;;;;;;10278316;28;20041;-65
2020/12/29 03:37:33;;;;;;;4.10;2.20;;;;;;;;;;10293314;28;20189;-65
2020/12/29 03:42:30;;;;;;;6.63;2.03;;;;;;;;;;10283521;28;20058;-65
2020/12/29 03:47:28;;;;;;;2.40;2.23;;;;;;;;;;10282636;28;20030;-63
2020/12/29 03:52:25;;;;;;;2.67;1.73;;;;;;;;;;10280024;28;20032;-65
2020/12/29 03:57:22;;;;;;;3.77;2.03;;;;;;;;;;10274677;28;20045;-65
2020/12/29 04:02:20;;;;;;;3.90;2.57;;;;;;;;;;10275500;28;20458;-65
2020/12/29 04:07:17;;;;;;;2.97;1.77;;;;;;;;;;10296708;28;20042;-65
2020/12/29 04:12:14;;;;;;;2.90;1.77;;;;;;;;;;10267362;28;20120;-65
2020/12/29 04:17:12;;;;;;;1.90;1.00;;;;;;;;;;10275610;28;20057;-62
2020/12/29 04:22:10;;;;;;;5.17;2.87;;;;;;;;;;10287033;28;20045;-65
2020/12/29 04:27:07;;;;;;;2.17;1.40;;;;;;;;;;10274408;28;20037;-64
2020/12/29 04:32:04;;;;;;;2.83;1.87;;;;;;;;;;10317096;23;20498;-65
2020/12/29 04:37:02;;;;;;;4.60;2.60;;;;;;;;;;10302682;28;20099;-65
2020/12/29 04:42:03;;;;;;;1.00;1.00;;;;;;;;;;10333751;28;20043;-65
2020/12/29 04:47:01;;;;;;;2.30;1.75;;;;;;;;;;10342356;28;20038;-65
2020/12/29 04:51:58;;;;;;;2.00;1.87;;;;;;;;;;10363614;28;20032;-65
2020/12/29 04:56:56;;;;;;;2.40;1.93;;;;;;;;;;10368620;28;20711;-65
2020/12/29 05:01:53;;;;;;;1.97;1.87;;;;;;;;;;10365770;28;20490;-65
2020/12/29 05:06:51;;;;;;;1.40;0.97;;;;;;;;;;10359818;28;20274;-62
2020/12/29 05:11:49;;;;;;;2.87;1.67;;;;;;;;;;10343297;28;20032;-63
2020/12/29 05:16:48;;;;;;;2.75;2.55;;;;;;;;;;10360442;28;20033;-62
2020/12/29 05:21:45;;;;;;;1.88;1.48;;;;;;;;;;10323157;28;20065;-62
2020/12/29 05:26:45;;;;;;;0.57;0.57;;;;;;;;;;10331977;28;20522;-62
2020/12/29 05:31:44;;;;;;;1.77;1.65;;;;;;;;;;10343319;28;21066;-61
2020/12/29 05:36:43;;;;;;;3.90;1.88;;;;;;;;;;10364530;28;20068;-63
2020/12/29 05:41:40;;;;;;;1.85;1.30;;;;;;;;;;10327621;28;20045;-64
2020/12/29 05:46:38;;;;;;;0.90;0.90;;;;;;;;;;10318167;28;20029;-62
2020/12/29 05:51:36;;;;;;;5.68;2.85;;;;;;;;;;10305780;28;20498;-62
2020/12/29 05:56:33;;;;;;;6.68;2.58;;;;;;;;;;10315195;28;20029;-63
2020/12/29 06:01:47;;;;;;;4.97;3.10;;;;;;;;;;10316547;28;20516;-63
2020/12/29 06:06:45;;;;;;;6.18;2.75;;;;;;;;;;10329778;28;20120;-61
2020/12/29 06:11:42;;;;;;;4.50;3.28;;;;;;;;;;10310882;28;20516;-63
2020/12/29 06:16:41;;;;;;;3.40;2.80;;;;;;;;;;10320947;28;20055;-66
2020/12/29 06:21:39;;;;;;;5.10;2.60;;;;;;;;;;10319936;28;20033;-64
2020/12/29 06:26:42;;;;;;;2.73;2.30;;;;;;;;;;10296136;28;20451;-61
2020/12/29 06:31:39;;;;;;;3.65;2.13;;;;;;;;;;10316027;28;20052;-60
2020/12/29 06:36:37;;;;;;;6.30;2.60;;;;;;;;;;10318649;28;20640;-63
2020/12/29 06:41:35;;;;;;;2.22;2.08;;;;;;;;;;10324505;28;20030;-62
2020/12/29 06:46:32;;;;;;;1.27;1.17;;;;;;;;;;10324756;28;20044;-62
2020/12/29 06:51:30;;;;;;;3.10;2.47;;;;;;;;;;10356454;28;20060;-64
2020/12/29 06:56:29;;;;;;;3.05;2.33;;;;;;;;;;10324139;28;20043;-63
2020/12/29 07:01:27;;;;;;;5.23;2.67;;;;;;;;;;10342218;28;20041;-63
2020/12/29 07:06:28;;;;;;;3.45;1.50;;;;;;;;;;10319555;28;20044;-62
2020/12/29 07:11:26;;;;;;;1.00;0.98;;;;;;;;;;10332292;28;20041;-63
2020/12/29 07:16:24;;;;;;;3.13;2.30;;;;;;;;;;10309495;28;20037;-63
2020/12/29 07:21:24;;;;;;;4.25;3.10;;;;;;;;;;10310137;28;20452;-63
2020/12/29 07:26:22;;;;;;;3.95;2.63;;;;;;;;;;10312808;28;20033;-65
2020/12/29 07:31:19;;;;;;;2.78;2.58;;;;;;;;;;10308237;28;20048;-66
2020/12/29 07:36:18;;;;;;;4.07;2.77;;;;;;;;;;10318143;28;20033;-66
2020/12/29 07:41:15;;;;;;;;;;;;;;;;;;10320305;28;20041;-67
2020/12/29 07:46:13;;;;;;;4.43;2.60;;;;;;;;;;10303937;28;20665;-66
2020/12/29 07:51:10;;;;;;;4.57;2.87;;;;;;;;;;10300739;28;20029;-66
2020/12/29 07:56:08;;;;;;;2.93;2.10;;;;;;;;;;10298574;28;20025;-66
2020/12/29 08:01:06;;;;;;;4.97;3.13;;;;;;;;;;10303283;28;20037;-65
2020/12/29 08:06:12;;;;;;;3.30;2.90;;;;;;;;;;10285645;28;20033;-65
2020/12/29 08:11:09;;;;;;;5.38;2.63;;;;;;;;;;10309490;28;20077;-63
2020/12/29 08:16:07;;;;;;;4.27;2.73;;;;;;;;;;10316055;28;20687;-63
2020/12/29 08:21:05;;;;;;;3.70;2.63;;;;;;;;;;10304170;28;20022;-63
2020/12/29 08:26:03;;;;;;;4.17;2.57;;;;;;;;;;10302547;28;20025;-65
2020/12/29 08:31:01;;;;;;;3.73;2.37;;;;;;;;;;10305935;28;20082;-65
2020/12/29 08:36:01;;;;;;;7.13;3.40;;;;;;;;;;10310135;28;20283;-64
2020/12/29 08:41:01;;;;;;;7.38;3.38;;;;;;;;;;10331792;28;20279;-62
2020/12/29 08:46:02;;;;;;;5.97;3.58;;;;;;;;;;10316148;28;20029;-64
2020/12/29 08:51:01;;;;;;;8.95;3.72;;;;;;;;;;10309094;28;20484;-65
2020/12/29 08:55:58;;;;;;;1.88;1.77;;;;;;;;;;10308145;28;20021;-65
2020/12/29 09:00:55;;;;;;;2.27;2.10;;;;;;;;;;10304868;28;20025;-65
2020/12/29 09:05:53;;;;;;;7.40;3.60;;;;;;;;;;10327475;28;20028;-65
2020/12/29 09:11:06;;;;;;;8.18;4.30;;;;;;;;;;10319069;28;20061;-64
2020/12/29 09:16:13;;;;;;;2.25;1.83;;;;;;;;;;10320097;28;20140;-64
2020/12/29 09:21:19;;;;;;;1.88;1.77;;;;;;;;;;10309646;28;20492;-64
2020/12/29 09:26:17;;;;;;;7.13;4.18;;;;;;;;;;10350896;28;20033;-64
2020/12/29 09:31:14;;;;;;;10.07;5.30;;;;;;;;;;10361632;28;20044;-65
2020/12/29 09:36:22;;;;;;;6.63;4.07;;;;;;;;;;10363199;28;20036;-65
2020/12/29 09:41:19;;;;;;;2.75;1.73;;;;;;;;;;10364483;28;20090;-65
2020/12/29 09:46:17;;;;;;;2.73;1.63;;;;;;;;;;10353353;28;20040;-65
2020/12/29 09:51:14;;;;;;;5.53;2.83;;;;;;;;;;10363037;28;20040;-65
2020/12/29 09:56:18;;;;;;;3.47;3.00;;;;;;;;;;10365620;28;20249;-65
2020/12/29 10:01:15;;;;;;;4.50;2.70;;;;;;;;;;10324206;28;21678;-65
2020/12/29 10:06:14;;;;;;;4.07;2.37;;;;;;;;;;10337180;28;20033;-65
2020/12/29 10:11:12;;;;;;;3.38;2.60;;;;;;;;;;10359069;28;20032;-65
2020/12/29 10:16:12;;;;;;;7.13;4.88;;;;;;;;;;10373172;28;20636;-65
2020/12/29 10:21:10;;;;;;;6.32;3.05;;;;;;;;;;10344228;28;20020;-64
2020/12/29 10:26:07;;;;;;;6.00;2.25;;;;;;;;;;10364457;28;20029;-63
2020/12/29 10:31:07;;;;;;;3.33;2.23;;;;;;;;;;10352472;28;20035;-64
2020/12/29 10:36:04;;;;;;;8.27;4.70;;;;;;;;;;10361709;28;20207;-65
2020/12/29 10:41:02;;;;;;;11.30;5.93;;;;;;;;;;10374783;28;20024;-64
2020/12/29 10:45:59;;;;;;;13.93;7.17;;;;;;;;;;10363015;28;20032;-65
2020/12/29 10:50:56;;;;;;;15.73;7.73;;;;;;;;;;10364321;28;20028;-65
2020/12/29 10:55:54;;;;;;;16.40;8.10;;;;;;;;;;10349579;28;20077;-65
2020/12/29 11:00:51;;;;;;;13.17;6.73;;;;;;;;;;10358970;28;20574;-65
2020/12/29 11:05:49;;;;;;;16.63;7.90;;;;;;;;;;10343501;28;20037;-65
2020/12/29 11:10:48;;;;;;;18.10;6.90;;;;;;;;;;10351057;28;20036;-64
2020/12/29 11:15:47;;;;;;;16.42;7.60;;;;;;;;;;10317219;28;20029;-66
2020/12/29 11:20:49;;;;;;;10.30;6.47;;;;;;;;;;10342176;28;20036;-64
2020/12/29 11:25:47;;;;;;;14.20;6.90;;;;;;;;;;10302353;28;20120;-64
2020/12/29 11:30:44;;;;;;;9.53;5.93;;;;;;;;;;10310923;28;20133;-65
2020/12/29 11:35:47;;;;;;;15.03;5.47;;;;;;;;;;10320338;28;20041;-64
2020/12/29 11:40:44;;;;;;;7.53;4.03;;;;;;;;;;10343374;28;20043;-65
2020/12/29 11:45:42;;;;;;;6.13;3.97;;;;;;;;;;10338326;28;20040;-64
2020/12/29 11:50:39;;;;;;;13.63;5.83;;;;;;;;;;10357357;28;20633;-63
2020/12/29 11:55:37;;;;;;;6.20;4.13;;;;;;;;;;10361155;28;20025;-65
2020/12/29 12:00:34;;;;;;;9.53;4.97;;;;;;;;;;10343477;28;20038;-64
2020/12/29 12:05:31;;;;;;;9.30;4.70;;;;;;;;;;10363859;28;20115;-64
2020/12/29 12:10:29;;;;;;;12.53;5.77;;;;;;;;;;10328305;28;20033;-65
2020/12/29 12:15:26;;;;;;;9.33;5.20;;;;;;;;;;10357337;28;20094;-64
2020/12/29 12:20:24;;;;;;;12.23;6.10;;;;;;;;;;10331764;28;20556;-65
2020/12/29 12:25:21;;;;;;;13.03;6.33;;;;;;;;;;10336314;28;20534;-65
2020/12/29 12:30:18;;;;;;;6.80;3.97;;;;;;;;;;10345759;28;20036;-63
2020/12/29 12:35:17;;;;;;;11.20;5.40;;;;;;;;;;10362784;28;20041;-65
2020/12/29 12:40:14;;;;;;;11.80;5.80;;;;;;;;;;10324677;28;20499;-64
2020/12/29 12:45:11;;;;;;;11.67;6.37;;;;;;;;;;10342870;28;20029;-65
2020/12/29 12:50:09;;;;;;;6.77;3.30;;;;;;;;;;10325736;28;20033;-65
2020/12/29 12:55:06;;;;;;;10.10;4.60;;;;;;;;;;10295216;28;20522;-65
2020/12/29 13:00:03;;;;;;;6.83;4.00;;;;;;;;;;10361977;28;20029;-64
2020/12/29 13:05:01;;;;;;;8.10;4.70;;;;;;;;;;10306030;28;20096;-65
2020/12/29 13:09:58;;;;;;;8.03;4.53;;;;;;;;;;10311245;28;20031;-64
2020/12/29 13:14:56;;;;;;;11.60;5.07;;;;;;;;;;10311239;28;20127;-65
2020/12/29 13:19:53;;;;;;;3.13;2.27;;;;;;;;;;10306011;28;20499;-65
2020/12/29 13:24:50;;;;;;;5.37;2.60;;;;;;;;;;10311860;28;20551;-65
2020/12/29 13:29:48;;;;;;;6.67;2.77;;;;;;;;;;10307641;28;20037;-63
2020/12/29 13:34:45;;;;;;;3.97;2.83;;;;;;;;;;10298555;28;20121;-64
2020/12/29 13:39:43;;;;;;;5.93;3.73;;;;;;;;;;10334419;28;20416;-65
2020/12/29 13:44:40;;;;;;;6.60;4.43;;;;;;;;;;10321773;28;20500;-64
2020/12/29 13:49:37;;;;;;;6.23;3.50;;;;;;;;;;10326125;28;20029;-64
2020/12/29 13:54:35;;;;;;;8.13;4.53;;;;;;;;;;10318043;28;20037;-64
2020/12/29 13:59:32;;;;;;;5.80;3.23;;;;;;;;;;10320615;28;20037;-64
2020/12/29 14:04:30;;;;;;;4.90;3.50;;;;;;;;;;10306508;28;20045;-64
2020/12/29 14:09:27;;;;;;;6.43;3.00;;;;;;;;;;10341294;28;20453;-64
2020/12/29 14:14:25;;;;;;;5.13;3.03;;;;;;;;;;10361981;28;20068;-64
2020/12/29 14:19:23;;;;;;;6.20;4.33;;;;;;;;;;10360433;28;20048;-65
2020/12/29 14:24:24;;;;;;;6.67;3.30;;;;;;;;;;10335584;28;20099;-64
2020/12/29 14:29:24;;;;;;;5.97;3.65;;;;;;;;;;10303243;28;20507;-64
2020/12/29 14:34:23;;;;;;;5.32;2.80;;;;;;;;;;10314569;28;20138;-65
2020/12/29 14:39:20;;;;;;;2.53;2.00;;;;;;;;;;10329518;28;20128;-63
2020/12/29 14:44:18;;;;;;;2.87;1.77;;;;;;;;;;10302944;28;20120;-64
2020/12/29 14:49:15;;;;;;;3.73;2.37;;;;;;;;;;10313956;28;20033;-63
2020/12/29 14:54:13;;;;;;;2.40;2.20;;;;;;;;;;10299003;28;20076;-64
2020/12/29 14:59:10;;;;;;;5.77;3.17;;;;;;;;;;10327283;28;20058;-64
2020/12/29 15:04:08;;;;;;;5.40;2.90;;;;;;;;;;10327862;28;20045;-63
2020/12/29 15:09:06;;;;;;;5.87;3.03;;;;;;;;;;10321576;28;20492;-64
2020/12/29 15:14:04;;;;;;;2.20;1.85;;;;;;;;;;10346599;28;20131;-64
2020/12/29 15:19:02;;;;;;;2.78;1.70;;;;;;;;;;10364711;28;20036;-64
2020/12/29 15:23:59;;;;;;;1.77;1.65;;;;;;;;;;10354824;28;20119;-64
2020/12/29 15:28:57;;;;;;;5.90;3.30;;;;;;;;;;10360781;28;20127;-63
2020/12/29 15:33:54;;;;;;;1.33;1.27;;;;;;;;;;10362634;28;20032;-62
2020/12/29 15:38:52;;;;;;;0.87;0.87;;;;;;;;;;10375099;28;20030;-63
2020/12/29 15:43:49;;;;;;;4.23;2.40;;;;;;;;;;10362862;28;20131;-63
2020/12/29 15:48:47;;;;;;;3.07;2.20;;;;;;;;;;10362585;28;20127;-62
2020/12/29 15:53:46;;;;;;;3.88;2.58;;;;;;;;;;10338302;28;20040;-64
2020/12/29 15:58:43;;;;;;;4.30;2.05;;;;;;;;;;10345108;28;20075;-60
2020/12/29 16:03:41;;;;;;;4.00;2.50;;;;;;;;;;10366046;28;20094;-62
2020/12/29 16:08:38;;;;;;;5.45;3.55;;;;;;;;;;10349530;28;20136;-60
2020/12/29 16:13:36;;;;;;;4.83;2.87;;;;;;;;;;10365995;28;20569;-62
2020/12/29 16:18:34;;;;;;;7.57;3.28;;;;;;;;;;10365850;28;20037;-64
2020/12/29 16:23:32;;;;;;;4.20;3.60;;;;;;;;;;10353255;28;20033;-64
2020/12/29 16:28:29;;;;;;;3.53;3.03;;;;;;;;;;10346250;28;20249;-64
2020/12/29 16:33:27;;;;;;;4.07;3.07;;;;;;;;;;10314342;28;20063;-62
2020/12/29 16:38:24;;;;;;;3.53;3.03;;;;;;;;;;10349923;28;20037;-62
2020/12/29 16:43:22;;;;;;;4.50;3.07;;;;;;;;;;10282719;22;20360;-62
2020/12/29 16:48:19;;;;;;;6.30;4.43;;;;;;;;;;10268469;28;20045;-63
2020/12/29 16:53:17;;;;;;;4.10;2.90;;;;;;;;;;10275287;28;20484;-63
2020/12/29 16:58:14;;;;;;;3.93;3.03;;;;;;;;;;10278768;28;20585;-64
2020/12/29 17:03:11;;;;;;;2.40;2.03;;;;;;;;;;10287049;28;20034;-60
2020/12/29 17:08:09;;;;;;;4.70;3.00;;;;;;;;;;10278924;28;20041;-63
2020/12/29 17:13:06;;;;;;;5.60;3.23;;;;;;;;;;10274724;28;20048;-62
2020/12/29 17:18:03;;;;;;;5.50;3.03;;;;;;;;;;10288812;28;20074;-63
2020/12/29 17:23:01;;;;;;;1.80;1.70;;;;;;;;;;10259218;28;20026;-62
2020/12/29 17:27:58;;;;;;;2.07;1.27;;;;;;;;;;10267589;28;20411;-63
2020/12/29 17:32:56;;;;;;;4.37;3.00;;;;;;;;;;10278445;28;20540;-63
2020/12/29 17:37:53;;;;;;;2.47;2.27;;;;;;;;;;10270136;28;20083;-63
2020/12/29 17:42:50;;;;;;;3.97;2.80;;;;;;;;;;10266550;28;20048;-62
2020/12/29 17:47:48;;;;;;;5.70;3.53;;;;;;;;;;10266124;28;20466;-61
2020/12/29 17:52:45;;;;;;;5.10;4.00;;;;;;;;;;10265320;28;20503;-60
2020/12/29 17:57:43;;;;;;;7.03;3.93;;;;;;;;;;10270667;28;20121;-63
2020/12/29 18:02:40;;;;;;;5.77;3.63;;;;;;;;;;10268792;28;20491;-61
2020/12/29 18:07:38;;;;;;;6.50;3.53;;;;;;;;;;10263811;28;20354;-61
2020/12/29 18:12:35;;;;;;;6.73;3.57;;;;;;;;;;10245171;28;20636;-62
2020/12/29 18:17:33;;;;;;;8.65;4.47;;;;;;;;;;10260600;28;20065;-62
2020/12/29 18:22:31;;;;;;;7.15;4.30;;;;;;;;;;10267456;28;20037;-63
2020/12/29 18:27:31;;;;;;;6.07;4.07;;;;;;;;;;10270519;28;20033;-62
2020/12/29 18:32:31;;;;;;;7.55;4.32;;;;;;;;;;10291024;28;20044;-62
2020/12/29 18:37:29;;;;;;;6.20;4.22;;;;;;;;;;10271894;28;20060;-62
2020/12/29 18:42:26;;;;;;;7.37;4.33;;;;;;;;;;10276385;28;20080;-63
2020/12/29 18:47:24;;;;;;;6.27;3.83;;;;;;;;;;10255337;28;20144;-62
2020/12/29 18:52:21;;;;;;;5.13;3.20;;;;;;;;;;10268529;28;20045;-63
2020/12/29 18:57:18;;;;;;;8.40;5.10;;;;;;;;;;10254640;28;20049;-61
2020/12/29 19:02:16;;;;;;;8.70;4.33;;;;;;;;;;10265350;28;20041;-61
2020/12/29 19:07:14;;;;;;;6.77;4.57;;;;;;;;;;10268089;28;20029;-62
2020/12/29 19:12:11;;;;;;;9.18;5.15;;;;;;;;;;10277717;28;20120;-62
2020/12/29 19:17:08;;;;;;;9.17;5.40;;;;;;;;;;10274964;28;20064;-62
2020/12/29 19:22:08;;;;;;;7.70;4.83;;;;;;;;;;10256252;28;20029;-60
2020/12/29 19:27:09;;;;;;;6.60;2.60;;;;;;;;;;10271039;28;20531;-60
2020/12/29 19:32:06;;;;;;;7.18;4.47;;;;;;;;;;10252342;28;20045;-62
2020/12/29 19:37:04;;;;;;;5.33;3.97;;;;;;;;;;10252498;28;20574;-62
2020/12/29 19:42:02;;;;;;;8.82;5.15;;;;;;;;;;10273507;28;20136;-62
2020/12/29 19:46:59;;;;;;;11.57;6.07;;;;;;;;;;10278350;28;20128;-62
2020/12/29 19:51:57;;;;;;;8.13;4.70;;;;;;;;;;10259433;28;20409;-62
2020/12/29 19:56:55;;;;;;;9.10;5.10;;;;;;;;;;10263210;28;20146;-62
2020/12/29 20:01:52;;;;;;;6.03;3.33;;;;;;;;;;10262924;28;20094;-62
2020/12/29 20:06:50;;;;;;;8.13;4.00;;;;;;;;;;10262673;28;20042;-61
2020/12/29 20:11:47;;;;;;;11.27;5.23;;;;;;;;;;10257525;28;20734;-62
2020/12/29 20:16:44;;;;;;;9.30;5.47;;;;;;;;;;10262336;28;20238;-62
2020/12/29 20:21:46;;;;;;;9.03;5.53;;;;;;;;;;10271489;28;20463;-61
2020/12/29 20:26:44;;;;;;;8.43;4.90;;;;;;;;;;10267498;28;20045;-62
2020/12/29 20:31:41;;;;;;;8.17;4.33;;;;;;;;;;10255576;28;20558;-62
2020/12/29 20:36:39;;;;;;;9.63;5.63;;;;;;;;;;10276129;28;20295;-62
2020/12/29 20:41:37;;;;;;;12.70;6.30;;;;;;;;;;10298932;28;20040;-63
2020/12/29 20:46:34;;;;;;;13.30;7.03;;;;;;;;;;10270026;28;20034;-62
2020/12/29 20:51:32;;;;;;;11.87;5.93;;;;;;;;;;10272282;28;20049;-62
2020/12/29 20:56:29;;;;;;;11.70;5.33;;;;;;;;;;10276793;28;20034;-62
2020/12/29 21:01:28;;;;;;;8.80;4.77;;;;;;;;;;10263583;28;20034;-62
2020/12/29 21:06:25;;;;;;;8.77;5.43;;;;;;;;;;10268119;28;20399;-63
2020/12/29 21:11:23;;;;;;;11.73;5.13;;;;;;;;;;10282737;28;20049;-62
2020/12/29 21:16:21;;;;;;;11.38;6.45;;;;;;;;;;10268433;28;20627;-62
2020/12/29 21:21:29;;;;;;;12.15;6.20;;;;;;;;;;10278007;28;20496;-62
2020/12/29 21:26:27;;;;;;;12.27;6.75;;;;;;;;;;10271483;28;20052;-62
2020/12/29 21:31:26;;;;;;;14.95;7.03;;;;;;;;;;10281146;28;20057;-62
2020/12/29 21:36:25;;;;;;;8.55;5.70;;;;;;;;;;10268978;28;20041;-62
2020/12/29 21:41:23;;;;;;;11.65;6.93;;;;;;;;;;10289233;28;20568;-62
2020/12/29 21:46:21;;;;;;;12.17;6.93;;;;;;;;;;10272619;28;20441;-63
2020/12/29 21:51:22;;;;;;;14.35;7.60;;;;;;;;;;10260275;28;20670;-62
2020/12/29 21:56:20;;;;;;;13.50;6.85;;;;;;;;;;10273077;28;20022;-63
2020/12/29 22:01:18;;;;;;;14.32;6.85;;;;;;;;;;10271101;28;20522;-63
2020/12/29 22:06:20;;;;;;;15.02;7.10;;;;;;;;;;10277552;28;20029;-61
2020/12/29 22:11:31;;;;;;;14.82;7.65;;;;;;;;;;10259064;28;20040;-62
2020/12/29 22:16:29;;;;;;;15.82;7.70;;;;;;;;;;10270428;28;20037;-62
2020/12/29 22:21:26;;;;;;;14.87;7.03;;;;;;;;;;10259318;28;20033;-62
2020/12/29 22:26:24;;;;;;;14.60;7.13;;;;;;;;;;10270732;28;20611;-62
2020/12/29 22:31:22;;;;;;;16.67;8.30;;;;;;;;;;10258323;28;20044;-62
2020/12/29 22:36:20;;;;;;;12.57;6.15;;;;;;;;;;10257213;28;21431;-62
2020/12/29 22:41:17;;;;;;;16.08;6.70;;;;;;;;;;10266040;28;20120;-62
2020/12/29 22:46:17;;;;;;;18.33;8.80;;;;;;;;;;10259988;28;20116;-62
2020/12/29 22:51:15;;;;;;;19.50;8.38;;;;;;;;;;10273354;28;20381;-62
2020/12/29 22:56:13;;;;;;;21.55;10.38;;;;;;;;;;10271378;28;20026;-61
2020/12/29 23:01:12;;;;;;;27.10;10.93;;;;;;;;;;10264340;28;20029;-62
2020/12/29 23:06:09;;;;;;;18.33;7.90;;;;;;;;;;10254012;28;20116;-62
2020/12/29 23:11:07;;;;;;;24.77;9.43;;;;;;;;;;10268494;28;20126;-61
2020/12/29 23:16:05;;;;;;;18.23;9.07;;;;;;;;;;10248988;28;20029;-63
2020/12/29 23:21:03;;;;;;;25.70;11.50;;;;;;;;;;10259069;28;20549;-63
2020/12/29 23:26:01;;;;;;;23.35;9.70;;;;;;;;;;10247237;28;20033;-62
2020/12/29 23:30:58;;;;;;;29.50;11.10;;;;;;;;;;10265581;28;20041;-59
2020/12/29 23:35:55;;;;;;;20.40;10.70;;;;;;;;;;10263518;28;20115;-62
2020/12/29 23:40:53;;;;;;;31.00;12.67;;;;;;;;;;10258224;28;20468;-62
2020/12/29 23:45:50;;;;;;;25.37;11.70;;;;;;;;;;10260108;28;20111;-62
2020/12/29 23:50:48;;;;;;;28.17;13.00;;;;;;;;;;10246410;28;20530;-62
2020/12/29 23:55:45;;;;;;;28.20;12.20;;;;;;;;;;10266881;28;20041;-61
